Airfield :
LOGIN :

Register | Disclaimer

   EN    FR    IT 

 










Legend :    VFR   Marginal VFR   IFR   Intensive IFR   Very Intensive IFR
Visi :
Ceiling :
>= 8 km
>= 3000ft
5 to 8 km
1000 to 3000 ft
1500m to 5 km
500 to 1000 ft
800 to 1500m
200 to 500 ft
< 800m
< 200 ft
Symbols :   Thunderstorms  Fog  Heavy snow  Heavy precipitations  Wind > 20 kt
SIGMETs :     Misc.  Thunderstorms  Icing  Turbulence  Mountain Waves  Volcanic Ashes







- Airport Elevation : 245 ft
- IATA code : BIQ
- Download approach charts


LFBZ - Biarritz

CURRENT METAR :
  • 230000Z AUTO VRB02KT 9999 FEW036 OVC049 13/11 Q1028 NOSIG

EXPIRED METARs :
  • 222330Z AUTO 16003KT 130V200 9999 -RA SCT033 BKN042 OVC049 13/11 Q1028 NOSIG
  • 222300Z AUTO VRB02KT 9999 FEW029 BKN036 OVC049 12/11 Q1029 NOSIG
  • 222230Z AUTO VRB02KT 9999 FEW033 BKN049 BKN056 12/11 Q1029 NOSIG
  • 222200Z AUTO 12003KT 9999 OVC047 12/11 Q1029 NOSIG
  • 222130Z AUTO 12003KT 090V160 9999 FEW029 BKN056 12/11 Q1029 NOSIG

TAF TAF LFBZ
Valid from the 23 at 00:00 until the 24 at 00:00 UTC


222300Z 2300/2324 VRB03KT 9999 BKN030
BECMG 2307/2310 09007KT CAVOK
No reported NOTAMs for that airfield.



MET'MAP, your aeronautical weather chart ! - Copyright ORBIFLY December 2007 - Disclaimer

ORBIFLY MET'MAP TEAM :

Programming & Development : Alexandra Zaïnal
Concept & Development : Baudouin d'Aumeries
Co-Development & Prog : Marc-Olivier Méhu
Technical & hardware support : Manuel Goepfert

Contact : metmap@orbifly.com




SOURCES & CREDITS :

   NOAA